sensor_id;sensor_type;location;lat;lon;timestamp;P1;durP1;ratioP1;P2;durP2;ratioP2
23338;SDS011;11841;49.368;20.962;2022-08-16T17:40:20;13.40;;;7.93;;
23338;SDS011;11841;49.368;20.962;2022-08-16T17:43:12;11.95;;;6.60;;
23338;SDS011;11841;49.368;20.962;2022-08-16T17:45:40;18.40;;;7.85;;
23338;SDS011;11841;49.368;20.962;2022-08-16T17:48:08;11.88;;;7.22;;
23338;SDS011;11841;49.368;20.962;2022-08-16T17:50:34;11.20;;;8.27;;
23338;SDS011;11841;49.368;20.962;2022-08-16T17:53:03;16.47;;;8.33;;
23338;SDS011;11841;49.368;20.962;2022-08-16T17:55:33;12.63;;;8.23;;
23338;SDS011;11841;49.368;20.962;2022-08-16T17:58:02;11.40;;;8.25;;
23338;SDS011;11841;49.368;20.962;2022-08-16T18:00:48;15.52;;;8.68;;
23338;SDS011;11841;49.368;20.962;2022-08-16T18:03:22;14.35;;;8.27;;
23338;SDS011;11841;49.368;20.962;2022-08-16T18:06:12;15.15;;;8.27;;
23338;SDS011;11841;49.368;20.962;2022-08-16T18:08:43;14.45;;;8.60;;
23338;SDS011;11841;49.368;20.962;2022-08-16T18:11:30;14.07;;;8.60;;
23338;SDS011;11841;49.368;20.962;2022-08-16T18:14:00;18.02;;;7.70;;
23338;SDS011;11841;49.368;20.962;2022-08-16T18:16:27;13.70;;;8.30;;
23338;SDS011;11841;49.368;20.962;2022-08-16T18:18:53;14.38;;;8.55;;
23338;SDS011;11841;49.368;20.962;2022-08-16T18:21:20;14.35;;;8.50;;
23338;SDS011;11841;49.368;20.962;2022-08-16T18:24:06;12.15;;;7.88;;
23338;SDS011;11841;49.368;20.962;2022-08-16T18:26:34;20.52;;;8.30;;
23338;SDS011;11841;49.368;20.962;2022-08-16T18:29:00;15.20;;;8.35;;
23338;SDS011;11841;49.368;20.962;2022-08-16T18:31:27;17.95;;;9.77;;
23338;SDS011;11841;49.368;20.962;2022-08-16T18:33:53;19.05;;;8.50;;
23338;SDS011;11841;49.368;20.962;2022-08-16T18:36:21;11.90;;;7.88;;
23338;SDS011;11841;49.368;20.962;2022-08-16T18:38:48;14.15;;;8.60;;
23338;SDS011;11841;49.368;20.962;2022-08-16T18:41:17;15.27;;;9.63;;
23338;SDS011;11841;49.368;20.962;2022-08-16T18:43:44;12.33;;;8.13;;
23338;SDS011;11841;49.368;20.962;2022-08-16T18:46:31;15.80;;;9.32;;
23338;SDS011;11841;49.368;20.962;2022-08-16T18:48:57;15.15;;;9.23;;
23338;SDS011;11841;49.368;20.962;2022-08-16T18:51:24;15.23;;;9.35;;
23338;SDS011;11841;49.368;20.962;2022-08-16T18:53:51;17.42;;;9.20;;
23338;SDS011;11841;49.368;20.962;2022-08-16T18:56:18;15.30;;;8.60;;
23338;SDS011;11841;49.368;20.962;2022-08-16T18:58:45;14.75;;;8.60;;
23338;SDS011;11841;49.368;20.962;2022-08-16T19:01:11;16.13;;;8.43;;
23338;SDS011;11841;49.368;20.962;2022-08-16T19:03:38;23.85;;;11.43;;
23338;SDS011;11841;49.368;20.962;2022-08-16T19:08:39;16.40;;;9.30;;
23338;SDS011;11841;49.368;20.962;2022-08-16T19:11:10;14.18;;;9.63;;
23338;SDS011;11841;49.368;20.962;2022-08-16T19:13:40;17.85;;;9.20;;
23338;SDS011;11841;49.368;20.962;2022-08-16T19:16:11;13.80;;;8.57;;
23338;SDS011;11841;49.368;20.962;2022-08-16T19:18:38;15.27;;;8.57;;
23338;SDS011;11841;49.368;20.962;2022-08-16T19:21:06;21.17;;;9.18;;
23338;SDS011;11841;49.368;20.962;2022-08-16T19:23:35;16.55;;;9.27;;
23338;SDS011;11841;49.368;20.962;2022-08-16T19:26:07;21.63;;;11.38;;
23338;SDS011;11841;49.368;20.962;2022-08-16T19:31:29;14.10;;;9.80;;
23338;SDS011;11841;49.368;20.962;2022-08-16T19:33:58;18.83;;;9.55;;
23338;SDS011;11841;49.368;20.962;2022-08-16T19:36:27;17.63;;;11.18;;
23338;SDS011;11841;49.368;20.962;2022-08-16T19:39:04;13.38;;;9.30;;
23338;SDS011;11841;49.368;20.962;2022-08-16T19:41:35;15.57;;;8.93;;
23338;SDS011;11841;49.368;20.962;2022-08-16T19:44:03;16.63;;;9.32;;
23338;SDS011;11841;49.368;20.962;2022-08-16T19:46:31;15.60;;;10.00;;
23338;SDS011;11841;49.368;20.962;2022-08-16T19:48:58;13.80;;;8.70;;
23338;SDS011;11841;49.368;20.962;2022-08-16T19:51:24;21.77;;;9.13;;
23338;SDS011;11841;49.368;20.962;2022-08-16T19:53:51;13.20;;;8.70;;
23338;SDS011;11841;49.368;20.962;2022-08-16T19:56:18;13.65;;;9.18;;
23338;SDS011;11841;49.368;20.962;2022-08-16T19:58:48;16.50;;;8.15;;
23338;SDS011;11841;49.368;20.962;2022-08-16T20:01:35;15.30;;;9.55;;
23338;SDS011;11841;49.368;20.962;2022-08-16T20:04:07;17.67;;;10.45;;
23338;SDS011;11841;49.368;20.962;2022-08-16T20:06:38;19.75;;;9.85;;
23338;SDS011;11841;49.368;20.962;2022-08-16T20:09:05;17.35;;;9.60;;
23338;SDS011;11841;49.368;20.962;2022-08-16T20:11:32;17.38;;;9.55;;
23338;SDS011;11841;49.368;20.962;2022-08-16T20:14:00;14.07;;;8.17;;
23338;SDS011;11841;49.368;20.962;2022-08-16T20:16:27;12.70;;;9.10;;
23338;SDS011;11841;49.368;20.962;2022-08-16T20:18:53;13.20;;;9.55;;
23338;SDS011;11841;49.368;20.962;2022-08-16T20:21:20;15.10;;;8.40;;
23338;SDS011;11841;49.368;20.962;2022-08-16T20:23:46;19.92;;;9.65;;
23338;SDS011;11841;49.368;20.962;2022-08-16T20:26:13;31.98;;;12.57;;
23338;SDS011;11841;49.368;20.962;2022-08-16T20:28:39;17.90;;;9.40;;
23338;SDS011;11841;49.368;20.962;2022-08-16T20:31:23;19.10;;;10.25;;
23338;SDS011;11841;49.368;20.962;2022-08-16T20:33:51;14.52;;;9.35;;
23338;SDS011;11841;49.368;20.962;2022-08-16T20:36:19;14.63;;;8.98;;
23338;SDS011;11841;49.368;20.962;2022-08-16T20:38:46;17.48;;;9.82;;
23338;SDS011;11841;49.368;20.962;2022-08-16T20:41:14;15.75;;;9.68;;
23338;SDS011;11841;49.368;20.962;2022-08-16T20:43:43;16.98;;;9.43;;
23338;SDS011;11841;49.368;20.962;2022-08-16T20:46:11;15.90;;;9.10;;
23338;SDS011;11841;49.368;20.962;2022-08-16T20:48:38;14.10;;;9.60;;
23338;SDS011;11841;49.368;20.962;2022-08-16T20:51:05;33.88;;;10.65;;
23338;SDS011;11841;49.368;20.962;2022-08-16T20:53:39;11.75;;;8.75;;
23338;SDS011;11841;49.368;20.962;2022-08-16T20:56:08;15.55;;;10.15;;
23338;SDS011;11841;49.368;20.962;2022-08-16T20:58:36;20.45;;;10.93;;
23338;SDS011;11841;49.368;20.962;2022-08-16T21:01:03;23.77;;;11.02;;
23338;SDS011;11841;49.368;20.962;2022-08-16T21:03:31;19.40;;;11.27;;
23338;SDS011;11841;49.368;20.962;2022-08-16T21:05:58;16.85;;;10.38;;
23338;SDS011;11841;49.368;20.962;2022-08-16T21:08:27;19.20;;;10.52;;
23338;SDS011;11841;49.368;20.962;2022-08-16T21:11:14;21.20;;;10.27;;
23338;SDS011;11841;49.368;20.962;2022-08-16T21:13:41;15.38;;;9.57;;
23338;SDS011;11841;49.368;20.962;2022-08-16T21:16:08;17.02;;;10.63;;
23338;SDS011;11841;49.368;20.962;2022-08-16T21:18:35;17.58;;;10.32;;
23338;SDS011;11841;49.368;20.962;2022-08-16T21:21:02;16.25;;;10.27;;
23338;SDS011;11841;49.368;20.962;2022-08-16T21:23:28;25.38;;;10.38;;
23338;SDS011;11841;49.368;20.962;2022-08-16T21:25:55;13.80;;;9.93;;
23338;SDS011;11841;49.368;20.962;2022-08-16T21:28:25;18.23;;;10.55;;
23338;SDS011;11841;49.368;20.962;2022-08-16T21:31:08;18.02;;;11.00;;
23338;SDS011;11841;49.368;20.962;2022-08-16T21:33:38;24.65;;;12.35;;
23338;SDS011;11841;49.368;20.962;2022-08-16T21:36:06;19.15;;;10.00;;
23338;SDS011;11841;49.368;20.962;2022-08-16T21:38:33;22.33;;;9.82;;
23338;SDS011;11841;49.368;20.962;2022-08-16T21:41:00;16.33;;;9.32;;
23338;SDS011;11841;49.368;20.962;2022-08-16T21:43:28;24.88;;;11.20;;
23338;SDS011;11841;49.368;20.962;2022-08-16T21:46:02;19.10;;;10.55;;
23338;SDS011;11841;49.368;20.962;2022-08-16T21:48:30;20.73;;;10.57;;
23338;SDS011;11841;49.368;20.962;2022-08-16T21:51:08;16.30;;;9.25;;
23338;SDS011;11841;49.368;20.962;2022-08-16T21:53:36;14.05;;;9.98;;
23338;SDS011;11841;49.368;20.962;2022-08-16T21:56:03;18.60;;;10.00;;
23338;SDS011;11841;49.368;20.962;2022-08-16T21:58:31;14.35;;;9.98;;
23338;SDS011;11841;49.368;20.962;2022-08-16T22:00:58;15.85;;;10.52;;
23338;SDS011;11841;49.368;20.962;2022-08-16T22:03:26;17.98;;;11.27;;
23338;SDS011;11841;49.368;20.962;2022-08-16T22:05:53;19.15;;;11.40;;
23338;SDS011;11841;49.368;20.962;2022-08-16T22:08:40;17.20;;;10.90;;
23338;SDS011;11841;49.368;20.962;2022-08-16T22:11:15;21.67;;;12.40;;
23338;SDS011;11841;49.368;20.962;2022-08-16T22:13:42;17.45;;;11.35;;
23338;SDS011;11841;49.368;20.962;2022-08-16T22:16:29;20.48;;;10.70;;
23338;SDS011;11841;49.368;20.962;2022-08-16T22:18:59;17.98;;;9.23;;
23338;SDS011;11841;49.368;20.962;2022-08-16T22:21:26;19.45;;;10.05;;
23338;SDS011;11841;49.368;20.962;2022-08-16T22:23:54;18.92;;;10.73;;
23338;SDS011;11841;49.368;20.962;2022-08-16T22:26:33;19.52;;;10.88;;
23338;SDS011;11841;49.368;20.962;2022-08-16T22:29:09;19.35;;;10.18;;
23338;SDS011;11841;49.368;20.962;2022-08-16T22:31:38;16.52;;;10.63;;
23338;SDS011;11841;49.368;20.962;2022-08-16T22:34:06;17.10;;;10.63;;
23338;SDS011;11841;49.368;20.962;2022-08-16T22:36:34;19.20;;;11.10;;
23338;SDS011;11841;49.368;20.962;2022-08-16T22:39:02;17.08;;;11.15;;
23338;SDS011;11841;49.368;20.962;2022-08-16T22:41:32;17.92;;;10.50;;
23338;SDS011;11841;49.368;20.962;2022-08-16T22:44:01;20.08;;;10.70;;
23338;SDS011;11841;49.368;20.962;2022-08-16T22:46:30;16.25;;;10.25;;
23338;SDS011;11841;49.368;20.962;2022-08-16T22:48:58;20.75;;;11.13;;
23338;SDS011;11841;49.368;20.962;2022-08-16T22:51:25;20.95;;;9.65;;
23338;SDS011;11841;49.368;20.962;2022-08-16T22:53:53;18.85;;;11.10;;
23338;SDS011;11841;49.368;20.962;2022-08-16T22:56:22;21.02;;;11.80;;
23338;SDS011;11841;49.368;20.962;2022-08-16T22:58:49;17.52;;;12.27;;
23338;SDS011;11841;49.368;20.962;2022-08-16T23:01:16;16.90;;;11.30;;
23338;SDS011;11841;49.368;20.962;2022-08-16T23:03:44;26.48;;;10.85;;
23338;SDS011;11841;49.368;20.962;2022-08-16T23:06:11;19.67;;;12.27;;
23338;SDS011;11841;49.368;20.962;2022-08-16T23:08:39;17.17;;;10.27;;
23338;SDS011;11841;49.368;20.962;2022-08-16T23:11:08;15.80;;;11.00;;
23338;SDS011;11841;49.368;20.962;2022-08-16T23:13:36;20.73;;;11.82;;
23338;SDS011;11841;49.368;20.962;2022-08-16T23:16:19;21.67;;;11.57;;
23338;SDS011;11841;49.368;20.962;2022-08-16T23:18:59;24.52;;;11.93;;
23338;SDS011;11841;49.368;20.962;2022-08-16T23:21:34;16.20;;;10.65;;
23338;SDS011;11841;49.368;20.962;2022-08-16T23:24:02;17.35;;;12.23;;
23338;SDS011;11841;49.368;20.962;2022-08-16T23:26:30;17.55;;;11.60;;
23338;SDS011;11841;49.368;20.962;2022-08-16T23:29:14;22.33;;;11.30;;
23338;SDS011;11841;49.368;20.962;2022-08-16T23:31:54;24.77;;;12.82;;
23338;SDS011;11841;49.368;20.962;2022-08-16T23:34:23;18.15;;;11.05;;
23338;SDS011;11841;49.368;20.962;2022-08-16T23:36:52;17.83;;;11.55;;
23338;SDS011;11841;49.368;20.962;2022-08-16T23:39:18;18.85;;;11.45;;
23338;SDS011;11841;49.368;20.962;2022-08-16T23:41:45;17.23;;;11.18;;
23338;SDS011;11841;49.368;20.962;2022-08-16T23:44:11;17.50;;;11.25;;
23338;SDS011;11841;49.368;20.962;2022-08-16T23:46:58;20.02;;;11.63;;
23338;SDS011;11841;49.368;20.962;2022-08-16T23:49:25;17.40;;;11.25;;
23338;SDS011;11841;49.368;20.962;2022-08-16T23:52:11;15.80;;;10.15;;
23338;SDS011;11841;49.368;20.962;2022-08-16T23:54:38;17.42;;;10.50;;
23338;SDS011;11841;49.368;20.962;2022-08-16T23:57:04;17.08;;;10.13;;
23338;SDS011;11841;49.368;20.962;2022-08-16T23:59:31;16.55;;;10.23;;
